sensor_id;sensor_type;location;lat;lon;timestamp;P1;durP1;ratioP1;P2;durP2;ratioP2
9188;SDS011;34313;50.780;6.084;2023-02-28T00:01:18;3.60;;;3.27;;
9188;SDS011;34313;50.780;6.084;2023-02-28T00:03:44;5.53;;;3.40;;
9188;SDS011;34313;50.780;6.084;2023-02-28T00:06:09;6.20;;;3.80;;
9188;SDS011;34313;50.780;6.084;2023-02-28T00:08:35;6.20;;;3.70;;
9188;SDS011;34313;50.780;6.084;2023-02-28T00:11:05;15.10;;;4.47;;
9188;SDS011;34313;50.780;6.084;2023-02-28T00:13:33;8.67;;;3.67;;
9188;SDS011;34313;50.780;6.084;2023-02-28T00:16:10;6.63;;;3.83;;
9188;SDS011;34313;50.780;6.084;2023-02-28T00:18:38;6.80;;;3.03;;
9188;SDS011;34313;50.780;6.084;2023-02-28T00:21:04;7.57;;;3.70;;
9188;SDS011;34313;50.780;6.084;2023-02-28T00:23:30;5.37;;;3.33;;
9188;SDS011;34313;50.780;6.084;2023-02-28T00:25:55;8.70;;;3.33;;
9188;SDS011;34313;50.780;6.084;2023-02-28T00:28:21;7.10;;;3.20;;
9188;SDS011;34313;50.780;6.084;2023-02-28T00:30:47;7.80;;;3.27;;
9188;SDS011;34313;50.780;6.084;2023-02-28T00:33:12;7.20;;;3.30;;
9188;SDS011;34313;50.780;6.084;2023-02-28T00:35:38;5.93;;;3.30;;
9188;SDS011;34313;50.780;6.084;2023-02-28T00:38:03;5.93;;;2.93;;
9188;SDS011;34313;50.780;6.084;2023-02-28T00:40:29;7.70;;;3.30;;
9188;SDS011;34313;50.780;6.084;2023-02-28T00:42:55;7.90;;;3.80;;
9188;SDS011;34313;50.780;6.084;2023-02-28T00:45:20;5.53;;;2.80;;
9188;SDS011;34313;50.780;6.084;2023-02-28T00:47:46;6.53;;;3.30;;
9188;SDS011;34313;50.780;6.084;2023-02-28T00:50:14;7.53;;;3.10;;
9188;SDS011;34313;50.780;6.084;2023-02-28T00:52:41;7.00;;;2.70;;
9188;SDS011;34313;50.780;6.084;2023-02-28T00:55:06;3.80;;;3.00;;
9188;SDS011;34313;50.780;6.084;2023-02-28T00:57:32;7.23;;;3.33;;
9188;SDS011;34313;50.780;6.084;2023-02-28T00:59:57;3.50;;;2.60;;
9188;SDS011;34313;50.780;6.084;2023-02-28T01:02:23;10.53;;;3.10;;
9188;SDS011;34313;50.780;6.084;2023-02-28T01:04:48;4.63;;;3.27;;
9188;SDS011;34313;50.780;6.084;2023-02-28T01:07:14;5.60;;;3.07;;
9188;SDS011;34313;50.780;6.084;2023-02-28T01:09:40;5.30;;;3.07;;
9188;SDS011;34313;50.780;6.084;2023-02-28T01:12:07;2.70;;;2.43;;
9188;SDS011;34313;50.780;6.084;2023-02-28T01:14:33;8.37;;;2.87;;
9188;SDS011;34313;50.780;6.084;2023-02-28T01:16:59;5.30;;;2.90;;
9188;SDS011;34313;50.780;6.084;2023-02-28T01:19:24;4.50;;;2.83;;
9188;SDS011;34313;50.780;6.084;2023-02-28T01:21:49;3.37;;;2.93;;
9188;SDS011;34313;50.780;6.084;2023-02-28T01:24:15;6.33;;;3.37;;
9188;SDS011;34313;50.780;6.084;2023-02-28T01:26:40;6.33;;;3.07;;
9188;SDS011;34313;50.780;6.084;2023-02-28T01:29:05;4.80;;;3.30;;
9188;SDS011;34313;50.780;6.084;2023-02-28T01:31:31;7.03;;;2.60;;
9188;SDS011;34313;50.780;6.084;2023-02-28T01:33:56;6.07;;;2.93;;
9188;SDS011;34313;50.780;6.084;2023-02-28T01:36:22;5.47;;;2.77;;
9188;SDS011;34313;50.780;6.084;2023-02-28T01:38:49;7.70;;;2.87;;
9188;SDS011;34313;50.780;6.084;2023-02-28T01:41:17;10.47;;;2.97;;
9188;SDS011;34313;50.780;6.084;2023-02-28T01:46:10;4.30;;;2.77;;
9188;SDS011;34313;50.780;6.084;2023-02-28T01:48:38;4.47;;;2.70;;
9188;SDS011;34313;50.780;6.084;2023-02-28T01:51:15;3.57;;;2.80;;
9188;SDS011;34313;50.780;6.084;2023-02-28T01:53:53;6.53;;;2.60;;
9188;SDS011;34313;50.780;6.084;2023-02-28T01:56:25;8.03;;;2.97;;
9188;SDS011;34313;50.780;6.084;2023-02-28T01:58:54;8.53;;;2.90;;
9188;SDS011;34313;50.780;6.084;2023-02-28T02:01:21;3.77;;;3.07;;
9188;SDS011;34313;50.780;6.084;2023-02-28T02:03:48;6.40;;;2.50;;
9188;SDS011;34313;50.780;6.084;2023-02-28T02:06:22;4.43;;;2.80;;
9188;SDS011;34313;50.780;6.084;2023-02-28T02:09:00;5.03;;;2.40;;
9188;SDS011;34313;50.780;6.084;2023-02-28T02:11:26;4.80;;;2.50;;
9188;SDS011;34313;50.780;6.084;2023-02-28T02:19:31;2.43;;;2.23;;
9188;SDS011;34313;50.780;6.084;2023-02-28T02:33:03;13.53;;;3.43;;
9188;SDS011;34313;50.780;6.084;2023-02-28T02:46:44;4.37;;;2.30;;
9188;SDS011;34313;50.780;6.084;2023-02-28T02:49:54;8.70;;;2.80;;
9188;SDS011;34313;50.780;6.084;2023-02-28T02:52:03;6.90;;;2.70;;
9188;SDS011;34313;50.780;6.084;2023-02-28T02:54:33;6.00;;;3.03;;
9188;SDS011;34313;50.780;6.084;2023-02-28T02:57:03;2.87;;;2.20;;
9188;SDS011;34313;50.780;6.084;2023-02-28T02:59:33;4.50;;;2.40;;
9188;SDS011;34313;50.780;6.084;2023-02-28T03:02:01;3.10;;;2.37;;
9188;SDS011;34313;50.780;6.084;2023-02-28T03:04:32;12.10;;;2.67;;
9188;SDS011;34313;50.780;6.084;2023-02-28T03:07:01;6.87;;;2.80;;
9188;SDS011;34313;50.780;6.084;2023-02-28T03:09:26;3.03;;;2.70;;
9188;SDS011;34313;50.780;6.084;2023-02-28T03:11:52;4.20;;;2.33;;
9188;SDS011;34313;50.780;6.084;2023-02-28T03:25:11;5.93;;;3.20;;
9188;SDS011;34313;50.780;6.084;2023-02-28T03:28:00;4.03;;;3.03;;
9188;SDS011;34313;50.780;6.084;2023-02-28T03:33:03;10.47;;;2.90;;
9188;SDS011;34313;50.780;6.084;2023-02-28T03:35:48;5.47;;;2.93;;
9188;SDS011;34313;50.780;6.084;2023-02-28T03:38:19;8.00;;;3.37;;
9188;SDS011;34313;50.780;6.084;2023-02-28T03:40:51;4.07;;;2.63;;
9188;SDS011;34313;50.780;6.084;2023-02-28T03:43:26;4.37;;;3.17;;
9188;SDS011;34313;50.780;6.084;2023-02-28T03:45:56;9.43;;;2.90;;
9188;SDS011;34313;50.780;6.084;2023-02-28T03:48:38;4.67;;;3.10;;
9188;SDS011;34313;50.780;6.084;2023-02-28T03:51:08;5.10;;;2.93;;
9188;SDS011;34313;50.780;6.084;2023-02-28T03:53:44;4.30;;;3.00;;
9188;SDS011;34313;50.780;6.084;2023-02-28T03:56:20;3.43;;;3.10;;
9188;SDS011;34313;50.780;6.084;2023-02-28T04:01:44;5.73;;;3.07;;
9188;SDS011;34313;50.780;6.084;2023-02-28T04:04:12;7.50;;;3.00;;
9188;SDS011;34313;50.780;6.084;2023-02-28T04:06:38;5.43;;;2.80;;
9188;SDS011;34313;50.780;6.084;2023-02-28T04:09:04;5.03;;;3.20;;
9188;SDS011;34313;50.780;6.084;2023-02-28T04:11:38;5.13;;;2.97;;
9188;SDS011;34313;50.780;6.084;2023-02-28T04:14:06;5.07;;;2.53;;
9188;SDS011;34313;50.780;6.084;2023-02-28T04:16:33;4.67;;;3.27;;
9188;SDS011;34313;50.780;6.084;2023-02-28T04:18:59;4.90;;;2.90;;
9188;SDS011;34313;50.780;6.084;2023-02-28T04:21:30;5.90;;;3.00;;
9188;SDS011;34313;50.780;6.084;2023-02-28T04:23:56;3.27;;;2.57;;
9188;SDS011;34313;50.780;6.084;2023-02-28T04:26:25;10.33;;;3.40;;
9188;SDS011;34313;50.780;6.084;2023-02-28T04:28:54;8.17;;;2.87;;
9188;SDS011;34313;50.780;6.084;2023-02-28T04:31:20;4.50;;;2.63;;
9188;SDS011;34313;50.780;6.084;2023-02-28T04:33:46;5.80;;;3.30;;
9188;SDS011;34313;50.780;6.084;2023-02-28T04:36:11;9.27;;;3.20;;
9188;SDS011;34313;50.780;6.084;2023-02-28T04:38:38;4.50;;;3.07;;
9188;SDS011;34313;50.780;6.084;2023-02-28T04:41:04;6.87;;;3.43;;
9188;SDS011;34313;50.780;6.084;2023-02-28T04:43:30;5.47;;;3.20;;
9188;SDS011;34313;50.780;6.084;2023-02-28T04:45:56;6.23;;;2.90;;
9188;SDS011;34313;50.780;6.084;2023-02-28T04:48:23;6.87;;;3.80;;
9188;SDS011;34313;50.780;6.084;2023-02-28T04:50:50;6.17;;;4.07;;
9188;SDS011;34313;50.780;6.084;2023-02-28T04:53:15;8.10;;;3.40;;
9188;SDS011;34313;50.780;6.084;2023-02-28T04:55:41;5.90;;;3.80;;
9188;SDS011;34313;50.780;6.084;2023-02-28T04:58:06;10.80;;;3.67;;
9188;SDS011;34313;50.780;6.084;2023-02-28T05:00:32;7.80;;;3.57;;
9188;SDS011;34313;50.780;6.084;2023-02-28T05:02:57;5.87;;;2.97;;
9188;SDS011;34313;50.780;6.084;2023-02-28T05:05:22;7.43;;;3.70;;
9188;SDS011;34313;50.780;6.084;2023-02-28T05:07:47;15.07;;;4.07;;
9188;SDS011;34313;50.780;6.084;2023-02-28T05:10:13;4.43;;;3.43;;
9188;SDS011;34313;50.780;6.084;2023-02-28T05:12:38;5.53;;;3.03;;
9188;SDS011;34313;50.780;6.084;2023-02-28T05:15:04;8.57;;;3.17;;
9188;SDS011;34313;50.780;6.084;2023-02-28T05:17:30;8.43;;;3.67;;
9188;SDS011;34313;50.780;6.084;2023-02-28T05:19:55;6.93;;;3.70;;
9188;SDS011;34313;50.780;6.084;2023-02-28T05:22:21;4.77;;;3.37;;
9188;SDS011;34313;50.780;6.084;2023-02-28T05:24:46;8.20;;;3.70;;
9188;SDS011;34313;50.780;6.084;2023-02-28T05:27:12;7.57;;;3.97;;
9188;SDS011;34313;50.780;6.084;2023-02-28T05:29:37;7.17;;;3.87;;
9188;SDS011;34313;50.780;6.084;2023-02-28T05:32:10;7.33;;;3.80;;
9188;SDS011;34313;50.780;6.084;2023-02-28T05:34:39;7.10;;;4.00;;
9188;SDS011;34313;50.780;6.084;2023-02-28T05:37:06;5.50;;;4.00;;
9188;SDS011;34313;50.780;6.084;2023-02-28T05:39:36;8.23;;;4.87;;
9188;SDS011;34313;50.780;6.084;2023-02-28T05:42:01;5.60;;;3.70;;
9188;SDS011;34313;50.780;6.084;2023-02-28T05:44:26;10.67;;;4.30;;
9188;SDS011;34313;50.780;6.084;2023-02-28T05:46:52;7.83;;;3.63;;
9188;SDS011;34313;50.780;6.084;2023-02-28T05:49:17;6.93;;;3.83;;
9188;SDS011;34313;50.780;6.084;2023-02-28T05:51:43;5.30;;;3.70;;
9188;SDS011;34313;50.780;6.084;2023-02-28T05:54:08;7.40;;;4.23;;
9188;SDS011;34313;50.780;6.084;2023-02-28T05:56:33;10.03;;;4.03;;
9188;SDS011;34313;50.780;6.084;2023-02-28T05:59:04;8.10;;;4.30;;
9188;SDS011;34313;50.780;6.084;2023-02-28T06:01:31;6.93;;;4.10;;
9188;SDS011;34313;50.780;6.084;2023-02-28T06:04:00;6.70;;;3.60;;
9188;SDS011;34313;50.780;6.084;2023-02-28T06:06:26;5.67;;;3.67;;
9188;SDS011;34313;50.780;6.084;2023-02-28T06:08:52;8.30;;;4.27;;
9188;SDS011;34313;50.780;6.084;2023-02-28T06:11:17;10.17;;;4.27;;
9188;SDS011;34313;50.780;6.084;2023-02-28T06:13:44;7.87;;;3.80;;
9188;SDS011;34313;50.780;6.084;2023-02-28T06:16:10;7.90;;;4.37;;
9188;SDS011;34313;50.780;6.084;2023-02-28T06:18:35;12.97;;;4.97;;
9188;SDS011;34313;50.780;6.084;2023-02-28T06:21:01;8.40;;;4.43;;
9188;SDS011;34313;50.780;6.084;2023-02-28T06:23:27;9.07;;;5.43;;
9188;SDS011;34313;50.780;6.084;2023-02-28T06:25:52;8.23;;;5.03;;
9188;SDS011;34313;50.780;6.084;2023-02-28T06:28:18;11.10;;;5.33;;
9188;SDS011;34313;50.780;6.084;2023-02-28T06:30:44;16.20;;;5.40;;
9188;SDS011;34313;50.780;6.084;2023-02-28T06:33:09;9.17;;;5.10;;
9188;SDS011;34313;50.780;6.084;2023-02-28T06:35:34;11.47;;;5.10;;
9188;SDS011;34313;50.780;6.084;2023-02-28T06:38:00;7.30;;;4.70;;
9188;SDS011;34313;50.780;6.084;2023-02-28T06:40:25;15.40;;;5.53;;
9188;SDS011;34313;50.780;6.084;2023-02-28T06:42:51;11.70;;;4.83;;
9188;SDS011;34313;50.780;6.084;2023-02-28T06:45:17;10.80;;;5.73;;
9188;SDS011;34313;50.780;6.084;2023-02-28T06:47:42;11.73;;;5.33;;
9188;SDS011;34313;50.780;6.084;2023-02-28T06:50:10;11.13;;;5.70;;
9188;SDS011;34313;50.780;6.084;2023-02-28T06:52:37;12.53;;;5.80;;
9188;SDS011;34313;50.780;6.084;2023-02-28T06:55:06;10.53;;;6.10;;
9188;SDS011;34313;50.780;6.084;2023-02-28T06:57:32;12.20;;;5.83;;
9188;SDS011;34313;50.780;6.084;2023-02-28T06:59:59;9.60;;;5.30;;
9188;SDS011;34313;50.780;6.084;2023-02-28T07:02:25;18.23;;;5.87;;
9188;SDS011;34313;50.780;6.084;2023-02-28T07:04:51;9.90;;;5.20;;
9188;SDS011;34313;50.780;6.084;2023-02-28T07:07:17;11.60;;;5.53;;
9188;SDS011;34313;50.780;6.084;2023-02-28T07:09:42;6.90;;;4.80;;
9188;SDS011;34313;50.780;6.084;2023-02-28T07:12:07;9.20;;;5.00;;
9188;SDS011;34313;50.780;6.084;2023-02-28T07:14:33;6.97;;;4.40;;
9188;SDS011;34313;50.780;6.084;2023-02-28T07:16:58;9.53;;;4.70;;
9188;SDS011;34313;50.780;6.084;2023-02-28T07:19:23;5.43;;;3.87;;
9188;SDS011;34313;50.780;6.084;2023-02-28T07:21:49;8.63;;;4.50;;
9188;SDS011;34313;50.780;6.084;2023-02-28T07:24:14;8.00;;;4.80;;
9188;SDS011;34313;50.780;6.084;2023-02-28T07:26:41;5.90;;;3.80;;
9188;SDS011;34313;50.780;6.084;2023-02-28T07:29:06;7.70;;;4.03;;
9188;SDS011;34313;50.780;6.084;2023-02-28T07:31:32;7.50;;;3.63;;
9188;SDS011;34313;50.780;6.084;2023-02-28T07:33:57;5.80;;;3.80;;
9188;SDS011;34313;50.780;6.084;2023-02-28T07:36:23;11.00;;;3.50;;
9188;SDS011;34313;50.780;6.084;2023-02-28T07:38:48;5.43;;;3.80;;
9188;SDS011;34313;50.780;6.084;2023-02-28T07:41:19;7.73;;;3.80;;
9188;SDS011;34313;50.780;6.084;2023-02-28T07:43:46;7.00;;;3.20;;
9188;SDS011;34313;50.780;6.084;2023-02-28T07:46:12;5.43;;;3.20;;
9188;SDS011;34313;50.780;6.084;2023-02-28T07:48:42;5.97;;;3.33;;
9188;SDS011;34313;50.780;6.084;2023-02-28T07:51:09;4.53;;;3.07;;
9188;SDS011;34313;50.780;6.084;2023-02-28T07:53:35;5.57;;;3.00;;
9188;SDS011;34313;50.780;6.084;2023-02-28T07:56:01;3.83;;;2.87;;
9188;SDS011;34313;50.780;6.084;2023-02-28T07:58:30;4.70;;;3.50;;
9188;SDS011;34313;50.780;6.084;2023-02-28T08:00:56;7.10;;;3.07;;
9188;SDS011;34313;50.780;6.084;2023-02-28T08:03:29;5.70;;;3.13;;
9188;SDS011;34313;50.780;6.084;2023-02-28T08:05:54;8.13;;;2.87;;
9188;SDS011;34313;50.780;6.084;2023-02-28T08:08:19;5.50;;;3.20;;
9188;SDS011;34313;50.780;6.084;2023-02-28T08:10:45;5.33;;;3.30;;
9188;SDS011;34313;50.780;6.084;2023-02-28T08:13:13;3.63;;;3.00;;
9188;SDS011;34313;50.780;6.084;2023-02-28T08:15:40;6.03;;;2.87;;
9188;SDS011;34313;50.780;6.084;2023-02-28T08:18:06;5.40;;;2.90;;
9188;SDS011;34313;50.780;6.084;2023-02-28T08:20:32;4.67;;;3.10;;
9188;SDS011;34313;50.780;6.084;2023-02-28T08:22:57;7.87;;;3.57;;
9188;SDS011;34313;50.780;6.084;2023-02-28T08:25:23;5.10;;;3.10;;
9188;SDS011;34313;50.780;6.084;2023-02-28T08:27:50;6.10;;;3.27;;
9188;SDS011;34313;50.780;6.084;2023-02-28T08:30:16;3.60;;;2.77;;
9188;SDS011;34313;50.780;6.084;2023-02-28T08:32:42;4.90;;;2.57;;
9188;SDS011;34313;50.780;6.084;2023-02-28T08:35:07;5.73;;;2.67;;
9188;SDS011;34313;50.780;6.084;2023-02-28T08:37:34;7.63;;;3.33;;
9188;SDS011;34313;50.780;6.084;2023-02-28T08:40:00;4.37;;;2.57;;
9188;SDS011;34313;50.780;6.084;2023-02-28T08:42:25;5.93;;;2.60;;
9188;SDS011;34313;50.780;6.084;2023-02-28T08:44:50;6.83;;;3.10;;
9188;SDS011;34313;50.780;6.084;2023-02-28T08:47:16;4.23;;;2.73;;
9188;SDS011;34313;50.780;6.084;2023-02-28T08:49:41;6.93;;;3.10;;
9188;SDS011;34313;50.780;6.084;2023-02-28T08:52:07;13.57;;;3.40;;
9188;SDS011;34313;50.780;6.084;2023-02-28T08:54:32;6.07;;;3.30;;
9188;SDS011;34313;50.780;6.084;2023-02-28T08:56:59;2.53;;;2.33;;
9188;SDS011;34313;50.780;6.084;2023-02-28T08:59:24;4.33;;;3.20;;
9188;SDS011;34313;50.780;6.084;2023-02-28T09:01:50;6.33;;;2.40;;
9188;SDS011;34313;50.780;6.084;2023-02-28T09:04:15;3.40;;;2.50;;
9188;SDS011;34313;50.780;6.084;2023-02-28T09:06:41;8.33;;;2.60;;
9188;SDS011;34313;50.780;6.084;2023-02-28T09:09:06;6.30;;;2.67;;
9188;SDS011;34313;50.780;6.084;2023-02-28T09:11:33;6.33;;;2.37;;
9188;SDS011;34313;50.780;6.084;2023-02-28T09:13:59;5.23;;;2.73;;
9188;SDS011;34313;50.780;6.084;2023-02-28T09:16:26;4.03;;;2.40;;
9188;SDS011;34313;50.780;6.084;2023-02-28T09:18:51;2.60;;;2.23;;
9188;SDS011;34313;50.780;6.084;2023-02-28T09:21:20;3.90;;;2.60;;
9188;SDS011;34313;50.780;6.084;2023-02-28T09:23:46;3.37;;;2.27;;
9188;SDS011;34313;50.780;6.084;2023-02-28T09:26:34;3.60;;;2.33;;
9188;SDS011;34313;50.780;6.084;2023-02-28T09:28:59;2.53;;;2.33;;
9188;SDS011;34313;50.780;6.084;2023-02-28T09:31:26;2.40;;;2.07;;
9188;SDS011;34313;50.780;6.084;2023-02-28T09:33:54;5.20;;;3.03;;
9188;SDS011;34313;50.780;6.084;2023-02-28T09:36:20;5.50;;;2.57;;
9188;SDS011;34313;50.780;6.084;2023-02-28T09:38:47;4.97;;;2.70;;
9188;SDS011;34313;50.780;6.084;2023-02-28T09:41:24;5.43;;;2.30;;
9188;SDS011;34313;50.780;6.084;2023-02-28T09:43:58;4.10;;;2.10;;
9188;SDS011;34313;50.780;6.084;2023-02-28T09:46:37;3.50;;;2.20;;
9188;SDS011;34313;50.780;6.084;2023-02-28T09:49:16;3.70;;;2.30;;
9188;SDS011;34313;50.780;6.084;2023-02-28T09:51:50;3.30;;;2.70;;
9188;SDS011;34313;50.780;6.084;2023-02-28T09:54:26;6.37;;;2.33;;
9188;SDS011;34313;50.780;6.084;2023-02-28T09:57:05;2.90;;;1.83;;
9188;SDS011;34313;50.780;6.084;2023-02-28T09:59:49;2.80;;;2.10;;
9188;SDS011;34313;50.780;6.084;2023-02-28T10:05:20;4.00;;;2.13;;
9188;SDS011;34313;50.780;6.084;2023-02-28T10:10:21;2.70;;;2.10;;
9188;SDS011;34313;50.780;6.084;2023-02-28T10:12:52;2.90;;;2.07;;
9188;SDS011;34313;50.780;6.084;2023-02-28T10:15:20;2.27;;;1.80;;
9188;SDS011;34313;50.780;6.084;2023-02-28T10:17:49;3.80;;;2.13;;
9188;SDS011;34313;50.780;6.084;2023-02-28T10:20:21;2.07;;;1.87;;
9188;SDS011;34313;50.780;6.084;2023-02-28T10:25:38;2.93;;;1.80;;
9188;SDS011;34313;50.780;6.084;2023-02-28T10:30:32;2.20;;;1.70;;
9188;SDS011;34313;50.780;6.084;2023-02-28T10:32:57;2.40;;;1.40;;
9188;SDS011;34313;50.780;6.084;2023-02-28T10:35:24;4.53;;;2.00;;
9188;SDS011;34313;50.780;6.084;2023-02-28T10:37:53;1.70;;;1.50;;
9188;SDS011;34313;50.780;6.084;2023-02-28T10:43:01;4.63;;;1.77;;
9188;SDS011;34313;50.780;6.084;2023-02-28T10:45:28;2.50;;;1.57;;
9188;SDS011;34313;50.780;6.084;2023-02-28T10:48:04;1.70;;;1.60;;
9188;SDS011;34313;50.780;6.084;2023-02-28T11:01:47;5.17;;;2.20;;
9188;SDS011;34313;50.780;6.084;2023-02-28T11:07:36;6.63;;;1.80;;
9188;SDS011;34313;50.780;6.084;2023-02-28T11:09:44;3.37;;;1.93;;
9188;SDS011;34313;50.780;6.084;2023-02-28T11:20:30;3.03;;;1.93;;
9188;SDS011;34313;50.780;6.084;2023-02-28T11:22:58;2.80;;;2.17;;
9188;SDS011;34313;50.780;6.084;2023-02-28T11:25:28;2.47;;;2.20;;
9188;SDS011;34313;50.780;6.084;2023-02-28T11:27:59;2.57;;;2.10;;
9188;SDS011;34313;50.780;6.084;2023-02-28T11:33:20;4.73;;;2.33;;
9188;SDS011;34313;50.780;6.084;2023-02-28T11:35:52;4.47;;;2.30;;
9188;SDS011;34313;50.780;6.084;2023-02-28T11:38:23;4.20;;;1.70;;
9188;SDS011;34313;50.780;6.084;2023-02-28T11:43:46;6.63;;;2.27;;
9188;SDS011;34313;50.780;6.084;2023-02-28T11:46:31;2.23;;;1.90;;
9188;SDS011;34313;50.780;6.084;2023-02-28T11:52:10;2.13;;;1.90;;
9188;SDS011;34313;50.780;6.084;2023-02-28T11:55:00;2.50;;;2.07;;
9188;SDS011;34313;50.780;6.084;2023-02-28T12:03:04;3.13;;;2.30;;
9188;SDS011;34313;50.780;6.084;2023-02-28T12:11:24;2.60;;;2.07;;
9188;SDS011;34313;50.780;6.084;2023-02-28T12:13:56;4.53;;;2.37;;
9188;SDS011;34313;50.780;6.084;2023-02-28T12:27:25;2.37;;;2.17;;
9188;SDS011;34313;50.780;6.084;2023-02-28T12:30:04;3.17;;;2.30;;
9188;SDS011;34313;50.780;6.084;2023-02-28T12:32:47;2.57;;;2.37;;
9188;SDS011;34313;50.780;6.084;2023-02-28T12:35:19;2.90;;;2.60;;
9188;SDS011;34313;50.780;6.084;2023-02-28T12:37:53;7.20;;;2.30;;
9188;SDS011;34313;50.780;6.084;2023-02-28T12:40:26;3.97;;;2.63;;
9188;SDS011;34313;50.780;6.084;2023-02-28T12:43:00;3.57;;;2.10;;
9188;SDS011;34313;50.780;6.084;2023-02-28T12:45:48;3.30;;;2.43;;
9188;SDS011;34313;50.780;6.084;2023-02-28T12:48:24;4.43;;;2.60;;
9188;SDS011;34313;50.780;6.084;2023-02-28T12:50:54;4.00;;;2.73;;
9188;SDS011;34313;50.780;6.084;2023-02-28T12:55:50;2.80;;;2.30;;
9188;SDS011;34313;50.780;6.084;2023-02-28T13:09:52;2.60;;;2.40;;
9188;SDS011;34313;50.780;6.084;2023-02-28T13:12:19;2.67;;;2.43;;
9188;SDS011;34313;50.780;6.084;2023-02-28T13:14:47;4.93;;;2.83;;
9188;SDS011;34313;50.780;6.084;2023-02-28T13:17:21;2.53;;;2.33;;
9188;SDS011;34313;50.780;6.084;2023-02-28T13:24:53;6.00;;;2.73;;
9188;SDS011;34313;50.780;6.084;2023-02-28T13:29:56;3.63;;;2.63;;
9188;SDS011;34313;50.780;6.084;2023-02-28T13:39:53;2.40;;;2.00;;
9188;SDS011;34313;50.780;6.084;2023-02-28T13:47:32;2.50;;;2.30;;
9188;SDS011;34313;50.780;6.084;2023-02-28T13:50:14;2.90;;;2.70;;
9188;SDS011;34313;50.780;6.084;2023-02-28T13:55:32;3.77;;;2.57;;
9188;SDS011;34313;50.780;6.084;2023-02-28T14:00:49;5.97;;;2.93;;
9188;SDS011;34313;50.780;6.084;2023-02-28T14:08:58;3.17;;;2.77;;
9188;SDS011;34313;50.780;6.084;2023-02-28T14:11:27;3.43;;;2.87;;
9188;SDS011;34313;50.780;6.084;2023-02-28T14:13:58;2.93;;;2.63;;
9188;SDS011;34313;50.780;6.084;2023-02-28T14:17:07;2.80;;;2.37;;
9188;SDS011;34313;50.780;6.084;2023-02-28T14:19:25;3.67;;;2.93;;
9188;SDS011;34313;50.780;6.084;2023-02-28T14:22:09;6.43;;;2.93;;
9188;SDS011;34313;50.780;6.084;2023-02-28T14:30:56;6.10;;;2.57;;
9188;SDS011;34313;50.780;6.084;2023-02-28T14:38:27;3.23;;;2.93;;
9188;SDS011;34313;50.780;6.084;2023-02-28T14:40:57;3.60;;;2.87;;
9188;SDS011;34313;50.780;6.084;2023-02-28T14:43:26;4.30;;;2.90;;
9188;SDS011;34313;50.780;6.084;2023-02-28T14:46:10;6.90;;;3.30;;
9188;SDS011;34313;50.780;6.084;2023-02-28T14:48:38;5.80;;;2.83;;
9188;SDS011;34313;50.780;6.084;2023-02-28T14:51:03;5.80;;;3.03;;
9188;SDS011;34313;50.780;6.084;2023-02-28T14:53:30;6.20;;;2.83;;
9188;SDS011;34313;50.780;6.084;2023-02-28T14:56:01;3.43;;;2.77;;
9188;SDS011;34313;50.780;6.084;2023-02-28T15:00:53;5.33;;;2.83;;
9188;SDS011;34313;50.780;6.084;2023-02-28T15:03:33;9.23;;;3.13;;
9188;SDS011;34313;50.780;6.084;2023-02-28T15:06:00;5.47;;;3.53;;
9188;SDS011;34313;50.780;6.084;2023-02-28T15:08:30;4.83;;;3.30;;
9188;SDS011;34313;50.780;6.084;2023-02-28T15:11:21;4.70;;;3.30;;
9188;SDS011;34313;50.780;6.084;2023-02-28T15:13:50;5.10;;;3.50;;
9188;SDS011;34313;50.780;6.084;2023-02-28T15:16:20;5.27;;;3.70;;
9188;SDS011;34313;50.780;6.084;2023-02-28T15:18:56;4.03;;;2.83;;
9188;SDS011;34313;50.780;6.084;2023-02-28T15:21:25;5.17;;;2.90;;
9188;SDS011;34313;50.780;6.084;2023-02-28T15:26:39;3.37;;;2.87;;
9188;SDS011;34313;50.780;6.084;2023-02-28T15:29:14;6.00;;;3.87;;
9188;SDS011;34313;50.780;6.084;2023-02-28T15:31:45;5.67;;;3.13;;
9188;SDS011;34313;50.780;6.084;2023-02-28T15:34:25;5.23;;;3.50;;
9188;SDS011;34313;50.780;6.084;2023-02-28T15:36:52;3.67;;;3.37;;
9188;SDS011;34313;50.780;6.084;2023-02-28T15:39:27;5.10;;;3.10;;
9188;SDS011;34313;50.780;6.084;2023-02-28T15:42:16;3.30;;;2.63;;
9188;SDS011;34313;50.780;6.084;2023-02-28T15:44:44;5.67;;;3.20;;
9188;SDS011;34313;50.780;6.084;2023-02-28T15:47:17;7.50;;;3.80;;
9188;SDS011;34313;50.780;6.084;2023-02-28T15:49:53;4.30;;;3.40;;
9188;SDS011;34313;50.780;6.084;2023-02-28T15:52:21;4.30;;;3.33;;
9188;SDS011;34313;50.780;6.084;2023-02-28T15:54:56;4.50;;;3.37;;
9188;SDS011;34313;50.780;6.084;2023-02-28T15:57:27;3.83;;;3.17;;
9188;SDS011;34313;50.780;6.084;2023-02-28T15:59:58;6.10;;;3.57;;
9188;SDS011;34313;50.780;6.084;2023-02-28T16:02:30;4.77;;;3.00;;
9188;SDS011;34313;50.780;6.084;2023-02-28T16:05:12;5.63;;;3.43;;
9188;SDS011;34313;50.780;6.084;2023-02-28T16:07:43;5.30;;;3.17;;
9188;SDS011;34313;50.780;6.084;2023-02-28T16:10:10;5.00;;;3.13;;
9188;SDS011;34313;50.780;6.084;2023-02-28T16:12:39;4.63;;;3.20;;
9188;SDS011;34313;50.780;6.084;2023-02-28T16:15:14;3.80;;;2.93;;
9188;SDS011;34313;50.780;6.084;2023-02-28T16:17:44;7.73;;;3.37;;
9188;SDS011;34313;50.780;6.084;2023-02-28T16:20:15;5.40;;;3.57;;
9188;SDS011;34313;50.780;6.084;2023-02-28T16:22:43;5.23;;;3.27;;
9188;SDS011;34313;50.780;6.084;2023-02-28T16:25:15;3.93;;;3.33;;
9188;SDS011;34313;50.780;6.084;2023-02-28T16:27:43;5.50;;;3.30;;
9188;SDS011;34313;50.780;6.084;2023-02-28T16:30:29;6.10;;;3.67;;
9188;SDS011;34313;50.780;6.084;2023-02-28T16:32:57;5.97;;;3.40;;
9188;SDS011;34313;50.780;6.084;2023-02-28T16:35:23;4.97;;;3.60;;
9188;SDS011;34313;50.780;6.084;2023-02-28T16:37:50;2.70;;;2.50;;
9188;SDS011;34313;50.780;6.084;2023-02-28T16:40:20;8.33;;;4.00;;
9188;SDS011;34313;50.780;6.084;2023-02-28T16:42:51;5.17;;;3.63;;
9188;SDS011;34313;50.780;6.084;2023-02-28T16:45:22;7.53;;;3.70;;
9188;SDS011;34313;50.780;6.084;2023-02-28T16:47:49;4.73;;;3.70;;
9188;SDS011;34313;50.780;6.084;2023-02-28T16:50:19;5.10;;;3.80;;
9188;SDS011;34313;50.780;6.084;2023-02-28T16:52:46;3.90;;;3.30;;
9188;SDS011;34313;50.780;6.084;2023-02-28T16:55:13;5.97;;;4.20;;
9188;SDS011;34313;50.780;6.084;2023-02-28T16:57:38;6.90;;;3.87;;
9188;SDS011;34313;50.780;6.084;2023-02-28T17:00:05;6.87;;;3.80;;
9188;SDS011;34313;50.780;6.084;2023-02-28T17:02:33;3.53;;;3.10;;
9188;SDS011;34313;50.780;6.084;2023-02-28T17:04:59;5.70;;;3.83;;
9188;SDS011;34313;50.780;6.084;2023-02-28T17:07:24;6.27;;;4.10;;
9188;SDS011;34313;50.780;6.084;2023-02-28T17:09:50;9.90;;;3.40;;
9188;SDS011;34313;50.780;6.084;2023-02-28T17:12:15;3.63;;;3.00;;
9188;SDS011;34313;50.780;6.084;2023-02-28T17:14:41;6.27;;;3.10;;
9188;SDS011;34313;50.780;6.084;2023-02-28T17:17:06;4.10;;;2.90;;
9188;SDS011;34313;50.780;6.084;2023-02-28T17:19:32;4.57;;;2.90;;
9188;SDS011;34313;50.780;6.084;2023-02-28T17:21:59;4.15;;;3.20;;
9188;SDS011;34313;50.780;6.084;2023-02-28T17:24:25;4.43;;;3.43;;
9188;SDS011;34313;50.780;6.084;2023-02-28T17:26:50;5.97;;;3.50;;
9188;SDS011;34313;50.780;6.084;2023-02-28T17:29:17;3.83;;;3.40;;
9188;SDS011;34313;50.780;6.084;2023-02-28T17:31:44;5.00;;;3.37;;
9188;SDS011;34313;50.780;6.084;2023-02-28T17:34:09;7.13;;;3.53;;
9188;SDS011;34313;50.780;6.084;2023-02-28T17:36:35;5.83;;;4.00;;
9188;SDS011;34313;50.780;6.084;2023-02-28T17:39:02;5.73;;;3.70;;
9188;SDS011;34313;50.780;6.084;2023-02-28T17:41:28;4.20;;;3.47;;
9188;SDS011;34313;50.780;6.084;2023-02-28T17:43:55;5.90;;;3.97;;
9188;SDS011;34313;50.780;6.084;2023-02-28T17:46:21;5.77;;;4.03;;
9188;SDS011;34313;50.780;6.084;2023-02-28T17:48:49;4.67;;;3.63;;
9188;SDS011;34313;50.780;6.084;2023-02-28T17:51:16;5.43;;;3.80;;
9188;SDS011;34313;50.780;6.084;2023-02-28T17:53:42;6.10;;;3.60;;
9188;SDS011;34313;50.780;6.084;2023-02-28T17:56:12;6.87;;;4.30;;
9188;SDS011;34313;50.780;6.084;2023-02-28T17:58:39;4.77;;;3.60;;
9188;SDS011;34313;50.780;6.084;2023-02-28T18:01:04;6.27;;;4.60;;
9188;SDS011;34313;50.780;6.084;2023-02-28T18:03:30;4.67;;;3.50;;
9188;SDS011;34313;50.780;6.084;2023-02-28T18:05:56;6.57;;;4.73;;